Time;durP1;ratioP1;P1;durP2;ratioP2;P2;SDS_P1;SDS_P2;PMS_P1;PMS_P2;Temp;Humidity;BMP_temperature;BMP_pressure;BME280_temperature;BME280_humidity;BME280_pressure;Samples;Min_cycle;Max_cycle;Signal;HPM_P1;HPM_P2
2022/07/24 00:01:11;;;;;;;8.97;8.37;;;30.00;63.50;;;;;;5054142;28;20598;-74
2022/07/24 00:03:39;;;;;;;9.20;8.60;;;30.00;63.40;;;;;;5060512;28;20462;-74
2022/07/24 00:06:10;;;;;;;8.97;8.30;;;29.90;63.40;;;;;;5058131;28;20822;-74
2022/07/24 00:08:40;;;;;;;9.50;8.70;;;29.90;63.50;;;;;;5056963;28;20497;-75
2022/07/24 00:11:11;;;;;;;7.97;7.37;;;29.90;63.40;;;;;;5055605;28;21133;-74
2022/07/24 00:13:39;;;;;;;8.67;7.97;;;29.90;63.50;;;;;;5057282;28;20480;-74
2022/07/24 00:16:12;;;;;;;9.37;8.57;;;29.90;63.50;;;;;;5067430;28;20505;-74
2022/07/24 00:18:40;;;;;;;8.80;8.10;;;29.90;63.50;;;;;;5073271;28;20573;-74
2022/07/24 00:21:12;;;;;;;9.97;9.13;;;29.90;63.50;;;;;;5073311;28;20830;-74
2022/07/24 00:23:40;;;;;;;9.57;8.80;;;29.90;63.60;;;;;;5071946;28;20492;-74
2022/07/24 00:26:11;;;;;;;10.90;9.83;;;29.90;63.60;;;;;;5073514;28;20482;-74
2022/07/24 00:28:40;;;;;;;9.30;8.37;;;29.80;63.60;;;;;;5053501;28;20458;-74
2022/07/24 00:31:12;;;;;;;8.30;7.60;;;29.90;63.50;;;;;;5053249;28;20512;-74
2022/07/24 00:33:41;;;;;;;8.83;8.10;;;29.80;63.50;;;;;;5056781;28;20485;-74
2022/07/24 00:36:10;;;;;;;9.33;8.50;;;29.80;63.50;;;;;;5054094;28;20439;-74
2022/07/24 00:38:38;;;;;;;10.13;9.10;;;29.80;63.60;;;;;;5058703;28;20472;-74
2022/07/24 00:41:12;;;;;;;9.70;9.00;;;29.80;63.50;;;;;;5065162;28;20456;-74
2022/07/24 00:43:59;;;;;;;9.50;8.80;;;29.80;63.60;;;;;;5062613;28;20458;-77
2022/07/24 00:46:29;;;;;;;9.30;8.57;;;29.80;63.60;;;;;;5073113;28;20489;-74
2022/07/24 00:48:57;;;;;;;9.20;8.47;;;29.80;63.60;;;;;;5072845;28;20933;-74
2022/07/24 00:51:26;;;;;;;9.00;8.20;;;29.80;63.70;;;;;;5073084;28;20479;-74
2022/07/24 00:53:54;;;;;;;9.30;8.50;;;29.80;63.70;;;;;;5072988;28;20462;-74
2022/07/24 00:56:22;;;;;;;8.77;8.07;;;29.80;63.60;;;;;;5064030;28;20459;-74
2022/07/24 00:58:50;;;;;;;9.97;9.17;;;29.80;63.60;;;;;;5053053;28;20515;-74
2022/07/24 01:01:19;;;;;;;8.93;8.23;;;29.80;63.60;;;;;;5062648;28;20516;-75
2022/07/24 01:03:49;;;;;;;8.20;7.60;;;29.70;63.60;;;;;;5073239;28;20452;-74
2022/07/24 01:06:17;;;;;;;8.93;8.23;;;29.70;63.60;;;;;;5072958;28;20446;-74
2022/07/24 01:08:45;;;;;;;9.30;8.60;;;29.70;63.60;;;;;;5055321;28;20470;-75
2022/07/24 01:11:13;;;;;;;9.43;8.60;;;29.70;63.60;;;;;;5052218;28;20435;-77
2022/07/24 01:13:42;;;;;;;9.60;8.90;;;29.70;63.60;;;;;;5061728;28;20443;-74
2022/07/24 01:16:10;;;;;;;8.43;7.83;;;29.70;63.70;;;;;;5066958;28;20455;-74
2022/07/24 01:18:39;;;;;;;9.17;8.37;;;29.70;63.60;;;;;;5053156;28;20553;-74
2022/07/24 01:21:14;;;;;;;9.73;8.83;;;29.70;63.60;;;;;;5072607;28;20950;-73
2022/07/24 01:23:43;;;;;;;9.20;8.50;;;29.60;63.60;;;;;;5072681;28;20439;-73
2022/07/24 01:26:14;;;;;;;9.97;9.10;;;29.60;63.60;;;;;;5073018;28;20475;-76
2022/07/24 01:28:43;;;;;;;9.43;8.77;;;29.60;63.60;;;;;;5072372;28;20457;-74
2022/07/24 01:31:12;;;;;;;9.97;9.07;;;29.60;63.60;;;;;;5055113;28;20487;-74
2022/07/24 01:33:40;;;;;;;9.33;8.57;;;29.60;63.60;;;;;;5052162;28;20760;-74
2022/07/24 01:36:11;;;;;;;9.40;8.50;;;29.60;63.60;;;;;;5052679;28;20473;-74
2022/07/24 01:38:41;;;;;;;9.47;8.77;;;29.60;63.60;;;;;;5051822;28;21032;-74
2022/07/24 01:41:15;;;;;;;9.10;8.30;;;29.60;63.60;;;;;;5052519;28;20470;-73
2022/07/24 01:43:43;;;;;;;9.93;9.17;;;29.60;63.60;;;;;;5052519;28;20475;-74
2022/07/24 01:46:14;;;;;;;9.53;8.83;;;29.60;63.60;;;;;;5052490;28;20861;-74
2022/07/24 01:48:44;;;;;;;9.40;8.80;;;29.60;63.60;;;;;;5055289;28;21160;-74
2022/07/24 01:51:15;;;;;;;8.37;7.70;;;29.50;63.50;;;;;;5052877;28;21066;-74
2022/07/24 01:53:45;;;;;;;10.63;9.63;;;29.50;63.60;;;;;;5052174;28;20498;-75
2022/07/24 01:56:13;;;;;;;10.40;9.43;;;29.50;63.60;;;;;;5052873;28;20457;-74
2022/07/24 01:58:41;;;;;;;10.10;9.40;;;29.50;63.60;;;;;;5052386;28;20874;-74
2022/07/24 02:01:17;;;;;;;10.60;9.67;;;29.50;63.60;;;;;;5052236;28;20783;-74
2022/07/24 02:03:45;;;;;;;9.50;8.80;;;29.50;63.60;;;;;;5052312;28;21153;-74
2022/07/24 02:06:13;;;;;;;9.57;8.87;;;29.50;63.50;;;;;;5052628;28;20448;-74
2022/07/24 02:08:42;;;;;;;9.60;8.80;;;29.50;63.50;;;;;;5060793;28;20850;-76
2022/07/24 02:11:18;;;;;;;8.80;7.93;;;29.50;63.50;;;;;;5055171;28;20469;-74
2022/07/24 02:13:46;;;;;;;8.60;8.00;;;29.40;63.50;;;;;;5051519;28;20509;-74
2022/07/24 02:16:14;;;;;;;9.40;8.57;;;29.40;63.50;;;;;;5052070;28;20506;-74
2022/07/24 02:18:42;;;;;;;9.83;8.93;;;29.40;63.50;;;;;;5053193;28;20496;-74
2022/07/24 02:21:14;;;;;;;9.07;8.30;;;29.40;63.50;;;;;;5071533;28;20457;-74
2022/07/24 02:23:42;;;;;;;8.80;8.20;;;29.40;63.50;;;;;;5055423;28;20459;-74
2022/07/24 02:26:13;;;;;;;8.53;7.93;;;29.40;63.40;;;;;;5056459;28;20968;-74
2022/07/24 02:28:43;;;;;;;8.67;7.97;;;29.40;63.50;;;;;;5055498;28;20798;-74
2022/07/24 02:31:14;;;;;;;9.47;8.50;;;29.40;63.40;;;;;;5055077;28;20460;-74
2022/07/24 02:33:42;;;;;;;9.97;9.13;;;29.40;63.50;;;;;;5054571;28;20458;-74
2022/07/24 02:36:13;;;;;;;9.23;8.27;;;29.40;63.40;;;;;;5054812;28;20502;-74
2022/07/24 02:38:42;;;;;;;8.60;8.00;;;29.40;63.50;;;;;;5054783;28;20526;-75
2022/07/24 02:41:13;;;;;;;10.47;9.50;;;29.40;63.50;;;;;;5055634;28;20453;-74
2022/07/24 02:43:43;;;;;;;9.47;8.77;;;29.30;63.40;;;;;;5057603;28;20465;-74
2022/07/24 02:46:17;;;;;;;8.67;7.90;;;29.40;63.50;;;;;;5062543;28;20459;-76
2022/07/24 02:48:46;;;;;;;8.83;8.13;;;29.30;63.40;;;;;;5056732;28;20498;-74
2022/07/24 02:51:14;;;;;;;9.87;9.00;;;29.30;63.40;;;;;;5055230;28;20823;-74
2022/07/24 02:53:42;;;;;;;9.67;8.83;;;29.30;63.40;;;;;;5057535;28;20480;-76
2022/07/24 02:56:14;;;;;;;9.20;8.40;;;29.30;63.50;;;;;;5061385;28;20484;-74
2022/07/24 02:58:44;;;;;;;9.27;8.50;;;29.30;63.50;;;;;;5056572;28;20528;-75
2022/07/24 03:01:12;;;;;;;8.90;8.20;;;29.30;63.50;;;;;;5054261;28;20441;-74
2022/07/24 03:03:40;;;;;;;9.10;8.40;;;29.30;63.50;;;;;;5060200;28;20496;-74
2022/07/24 03:06:14;;;;;;;9.80;9.10;;;29.30;63.50;;;;;;5058371;28;20803;-74
2022/07/24 03:08:43;;;;;;;9.90;8.90;;;29.30;63.40;;;;;;5054320;28;20467;-74
2022/07/24 03:11:14;;;;;;;9.30;8.50;;;29.30;63.40;;;;;;5055288;28;20483;-75
2022/07/24 03:13:43;;;;;;;9.33;8.50;;;29.30;63.40;;;;;;5067560;28;20449;-74
2022/07/24 03:16:16;;;;;;;9.27;8.57;;;29.20;63.40;;;;;;5066498;28;20525;-74
2022/07/24 03:18:48;;;;;;;9.50;8.80;;;29.20;63.40;;;;;;5054473;28;20443;-74
2022/07/24 03:21:19;;;;;;;9.23;8.43;;;29.20;63.40;;;;;;5054817;28;20446;-75
2022/07/24 03:24:07;;;;;;;9.70;8.80;;;29.20;63.30;;;;;;5054659;28;20538;-74
2022/07/24 03:26:36;;;;;;;9.57;8.70;;;29.20;63.30;;;;;;5054883;28;20463;-74
2022/07/24 03:29:05;;;;;;;10.70;9.27;;;29.20;63.30;;;;;;5054236;28;20904;-74
2022/07/24 03:31:34;;;;;;;8.70;8.10;;;29.20;63.30;;;;;;5054210;28;20459;-74
2022/07/24 03:34:03;;;;;;;10.67;9.50;;;29.20;63.30;;;;;;5054651;28;20991;-74
2022/07/24 03:36:31;;;;;;;8.73;8.03;;;29.20;63.20;;;;;;5054738;28;20470;-74
2022/07/24 03:38:59;;;;;;;8.30;7.60;;;29.20;63.20;;;;;;5060937;28;20504;-75
2022/07/24 03:41:28;;;;;;;10.53;8.13;;;29.20;63.20;;;;;;5054861;28;20461;-74
2022/07/24 03:43:56;;;;;;;9.30;8.60;;;29.20;63.20;;;;;;5057530;28;20468;-74
2022/07/24 03:46:28;;;;;;;9.73;8.90;;;29.20;63.20;;;;;;5054948;28;20422;-76
2022/07/24 03:48:56;;;;;;;8.50;7.83;;;29.20;63.20;;;;;;5066104;28;20456;-74
2022/07/24 03:51:25;;;;;;;8.83;8.13;;;29.10;63.20;;;;;;5055738;28;20494;-74
2022/07/24 03:53:54;;;;;;;9.87;8.80;;;29.10;63.20;;;;;;5073906;28;20509;-74
2022/07/24 03:56:22;;;;;;;9.10;8.40;;;29.10;63.20;;;;;;5074151;28;20437;-74
2022/07/24 03:58:53;;;;;;;9.20;8.50;;;29.10;63.20;;;;;;5073483;28;20881;-74
2022/07/24 04:01:22;;;;;;;10.10;9.20;;;29.10;63.20;;;;;;5057161;28;20462;-74
2022/07/24 04:03:51;;;;;;;8.50;7.67;;;29.10;63.20;;;;;;5053650;28;20445;-74
2022/07/24 04:06:19;;;;;;;9.50;8.53;;;29.10;63.20;;;;;;5054042;28;20535;-74
2022/07/24 04:08:48;;;;;;;8.53;7.83;;;29.10;63.10;;;;;;5053788;28;20451;-74
2022/07/24 04:11:16;;;;;;;9.03;8.43;;;29.10;63.20;;;;;;5058021;28;20464;-74
2022/07/24 04:13:44;;;;;;;9.67;8.77;;;29.10;63.10;;;;;;5066966;28;20585;-74
2022/07/24 04:16:15;;;;;;;9.40;8.57;;;29.10;63.10;;;;;;5062162;28;20456;-74
2022/07/24 04:18:43;;;;;;;9.10;8.20;;;29.10;63.10;;;;;;5072333;28;20743;-76
2022/07/24 04:21:16;;;;;;;8.00;7.50;;;29.10;63.10;;;;;;5052637;28;20565;-74
2022/07/24 04:23:44;;;;;;;10.30;9.40;;;29.10;63.10;;;;;;5054535;28;21000;-74
2022/07/24 04:26:15;;;;;;;10.40;9.47;;;29.10;63.10;;;;;;5053095;28;20443;-73
2022/07/24 04:28:44;;;;;;;8.63;7.83;;;29.00;63.10;;;;;;5053363;28;20427;-77
2022/07/24 04:31:15;;;;;;;10.07;9.27;;;29.00;63.10;;;;;;5053268;28;20488;-74
2022/07/24 04:33:44;;;;;;;9.70;9.00;;;29.00;63.20;;;;;;5053091;28;20459;-74
2022/07/24 04:36:16;;;;;;;8.63;8.03;;;29.00;63.20;;;;;;5054077;28;20543;-74
2022/07/24 04:38:45;;;;;;;8.60;7.90;;;29.00;63.20;;;;;;5060089;28;20544;-75
2022/07/24 04:41:17;;;;;;;8.53;7.93;;;29.00;63.20;;;;;;5057350;28;20467;-74
2022/07/24 04:43:45;;;;;;;8.73;8.03;;;29.00;63.10;;;;;;5055664;28;20867;-74
2022/07/24 04:46:17;;;;;;;8.90;8.27;;;29.00;63.20;;;;;;5061017;28;20948;-76
2022/07/24 04:48:45;;;;;;;9.70;7.60;;;29.00;63.20;;;;;;5053861;28;20464;-74
2022/07/24 04:51:18;;;;;;;8.40;7.70;;;29.00;63.00;;;;;;5066404;28;20502;-74
2022/07/24 04:53:46;;;;;;;8.17;7.40;;;29.00;63.00;;;;;;5055427;28;20454;-73
2022/07/24 04:56:14;;;;;;;8.57;7.77;;;29.00;63.00;;;;;;5056825;28;20457;-73
2022/07/24 04:58:42;;;;;;;7.53;6.93;;;29.00;63.00;;;;;;5057193;28;20492;-73
2022/07/24 05:01:17;;;;;;;8.00;7.40;;;29.10;62.90;;;;;;5054071;28;20903;-74
2022/07/24 05:03:46;;;;;;;8.83;8.13;;;29.10;62.90;;;;;;5054854;28;20444;-74
2022/07/24 05:06:18;;;;;;;7.17;6.53;;;29.10;62.90;;;;;;5061855;28;20474;-74
2022/07/24 05:08:46;;;;;;;8.13;7.53;;;29.10;62.90;;;;;;5051850;28;20864;-73
2022/07/24 05:11:15;;;;;;;8.87;8.20;;;29.10;62.80;;;;;;5056575;28;20508;-73
2022/07/24 05:13:43;;;;;;;7.73;7.23;;;29.10;62.80;;;;;;5054421;28;20948;-73
2022/07/24 05:16:14;;;;;;;7.30;6.70;;;29.10;62.80;;;;;;5052288;28;20545;-73
2022/07/24 05:18:43;;;;;;;7.73;7.23;;;29.10;62.80;;;;;;5057527;28;20451;-75
2022/07/24 05:21:18;;;;;;;7.63;7.13;;;29.10;62.80;;;;;;5056005;28;20477;-75
2022/07/24 05:23:46;;;;;;;7.17;6.67;;;29.10;62.80;;;;;;5051770;28;20510;-74
2022/07/24 05:26:15;;;;;;;7.77;7.27;;;29.10;62.80;;;;;;5058431;28;20494;-76
2022/07/24 05:28:43;;;;;;;7.37;6.67;;;29.20;62.80;;;;;;5060617;28;20456;-76
2022/07/24 05:31:14;;;;;;;7.40;6.70;;;29.20;62.90;;;;;;5048947;28;20505;-75
2022/07/24 05:33:43;;;;;;;7.90;7.30;;;29.20;62.90;;;;;;5065760;28;20520;-75
2022/07/24 05:36:18;;;;;;;7.57;6.67;;;29.20;63.00;;;;;;5055648;28;20496;-75
2022/07/24 05:38:54;;;;;;;7.97;7.20;;;29.20;63.00;;;;;;5055858;28;20764;-74
2022/07/24 05:41:22;;;;;;;9.40;7.67;;;29.20;63.00;;;;;;5059232;28;20543;-76
2022/07/24 05:43:50;;;;;;;8.17;7.47;;;29.20;63.00;;;;;;5071430;28;20428;-75
2022/07/24 05:46:18;;;;;;;9.73;7.00;;;29.20;63.00;;;;;;5058271;28;20550;-75
2022/07/24 05:48:47;;;;;;;8.40;7.60;;;29.20;63.00;;;;;;5061576;28;20440;-75
2022/07/24 05:51:15;;;;;;;8.10;7.40;;;29.20;63.00;;;;;;5060387;28;20483;-75
2022/07/24 05:53:45;;;;;;;8.70;7.90;;;29.20;63.00;;;;;;5069914;28;20481;-76
2022/07/24 05:56:16;;;;;;;8.80;7.50;;;29.20;63.00;;;;;;5063107;28;20446;-75
2022/07/24 05:58:45;;;;;;;11.30;7.60;;;29.20;63.00;;;;;;5068811;28;20436;-76
2022/07/24 06:01:18;;;;;;;7.77;7.17;;;29.20;63.00;;;;;;5054400;28;20485;-75
2022/07/24 06:03:47;;;;;;;8.57;7.80;;;29.30;63.00;;;;;;5057087;28;20457;-75
2022/07/24 06:06:15;;;;;;;7.30;6.80;;;29.30;62.90;;;;;;5060443;28;20973;-75
2022/07/24 06:08:46;;;;;;;8.03;7.30;;;29.30;62.90;;;;;;5054721;28;20881;-76
2022/07/24 06:11:14;;;;;;;8.23;7.43;;;29.30;62.90;;;;;;5055378;28;20454;-76
2022/07/24 06:13:42;;;;;;;8.53;7.90;;;29.30;62.90;;;;;;5054437;28;20516;-75
2022/07/24 06:16:14;;;;;;;8.40;7.60;;;29.30;62.90;;;;;;5056017;28;20551;-75
2022/07/24 06:18:42;;;;;;;7.80;7.20;;;29.30;62.90;;;;;;5055132;28;20461;-75
2022/07/24 06:21:16;;;;;;;8.97;7.67;;;29.30;62.90;;;;;;5055333;28;20506;-75
2022/07/24 06:23:46;;;;;;;8.00;7.30;;;29.30;62.90;;;;;;5055156;28;20478;-75
2022/07/24 06:26:14;;;;;;;8.07;7.47;;;29.30;62.80;;;;;;5055658;28;20845;-75
2022/07/24 06:28:42;;;;;;;8.43;7.63;;;29.30;62.80;;;;;;5055159;28;20440;-75
2022/07/24 06:31:14;;;;;;;8.17;7.23;;;29.30;62.70;;;;;;5054934;28;20461;-75
2022/07/24 06:33:45;;;;;;;7.50;7.00;;;29.30;62.80;;;;;;5055129;28;20500;-75
2022/07/24 06:36:16;;;;;;;8.43;7.77;;;29.30;62.70;;;;;;5054686;28;20434;-75
2022/07/24 06:38:46;;;;;;;8.73;7.93;;;29.30;62.70;;;;;;5054965;28;20435;-75
2022/07/24 06:41:14;;;;;;;8.57;7.70;;;29.30;62.70;;;;;;5058991;28;20561;-75
2022/07/24 06:43:42;;;;;;;8.40;7.60;;;29.40;62.60;;;;;;5063533;28;20474;-77
2022/07/24 06:46:16;;;;;;;8.27;7.47;;;29.40;62.60;;;;;;5054843;28;20449;-75
2022/07/24 06:48:44;;;;;;;9.23;8.40;;;29.30;62.60;;;;;;5053772;28;20874;-77
2022/07/24 06:51:13;;;;;;;7.53;7.03;;;29.40;62.60;;;;;;5059281;28;20515;-75
2022/07/24 06:53:44;;;;;;;8.40;7.73;;;29.40;62.60;;;;;;5063188;28;20790;-75
2022/07/24 06:56:16;;;;;;;10.63;8.30;;;29.40;62.60;;;;;;5054491;28;20524;-75
2022/07/24 06:58:44;;;;;;;8.17;7.47;;;29.40;62.60;;;;;;5053823;28;20519;-75
2022/07/24 07:01:15;;;;;;;7.97;7.30;;;29.40;62.50;;;;;;5055516;28;20474;-76
2022/07/24 07:03:44;;;;;;;7.47;6.97;;;29.40;62.50;;;;;;5064401;28;20517;-75
2022/07/24 07:06:15;;;;;;;9.33;8.53;;;29.40;62.50;;;;;;5054073;28;20518;-75
2022/07/24 07:08:43;;;;;;;7.83;7.23;;;29.40;62.50;;;;;;5060016;28;20451;-74
2022/07/24 07:11:16;;;;;;;8.63;8.07;;;29.40;62.50;;;;;;5057861;28;20885;-74
2022/07/24 07:13:44;;;;;;;7.83;7.23;;;29.50;62.50;;;;;;5071710;28;20447;-77
2022/07/24 07:16:15;;;;;;;7.47;7.00;;;29.40;62.40;;;;;;5054623;28;20466;-75
2022/07/24 07:18:43;;;;;;;8.33;7.63;;;29.40;62.40;;;;;;5057629;28;20964;-76
2022/07/24 07:21:17;;;;;;;7.67;7.07;;;29.50;62.40;;;;;;5054462;28;20502;-75
2022/07/24 07:23:46;;;;;;;9.40;8.70;;;29.50;62.40;;;;;;5054022;28;20482;-75
2022/07/24 07:26:19;;;;;;;9.50;8.70;;;29.50;62.40;;;;;;5065514;28;20452;-75
2022/07/24 07:28:47;;;;;;;8.47;7.63;;;29.50;62.40;;;;;;5053368;28;20499;-75
2022/07/24 07:31:15;;;;;;;8.80;8.10;;;29.50;62.40;;;;;;5053764;28;20530;-75
2022/07/24 07:33:44;;;;;;;8.50;7.90;;;29.50;62.30;;;;;;5053079;28;21039;-75
2022/07/24 07:36:18;;;;;;;9.03;8.23;;;29.50;62.30;;;;;;5054719;28;20455;-75
2022/07/24 07:38:46;;;;;;;8.23;7.63;;;29.50;62.30;;;;;;5054407;28;20826;-75
2022/07/24 07:41:15;;;;;;;8.50;7.80;;;29.50;62.30;;;;;;5070281;28;20479;-75
2022/07/24 07:43:44;;;;;;;9.87;8.07;;;29.50;62.30;;;;;;5060268;28;20458;-75
2022/07/24 07:46:15;;;;;;;8.07;7.40;;;29.50;62.30;;;;;;5062525;28;20887;-75
2022/07/24 07:48:44;;;;;;;9.43;8.50;;;29.50;62.20;;;;;;5065309;28;20448;-77
2022/07/24 07:51:15;;;;;;;8.63;7.93;;;29.60;62.20;;;;;;5062153;28;20806;-75
2022/07/24 07:53:49;;;;;;;8.30;7.80;;;29.60;62.20;;;;;;5065750;28;20454;-75
2022/07/24 07:56:18;;;;;;;8.53;7.83;;;29.60;62.20;;;;;;5063024;28;20480;-75
2022/07/24 07:58:50;;;;;;;8.60;8.00;;;29.60;62.20;;;;;;5060484;28;20436;-75
2022/07/24 08:01:18;;;;;;;9.33;8.40;;;29.60;62.20;;;;;;5054967;28;20466;-75
2022/07/24 08:03:46;;;;;;;7.93;7.40;;;29.60;62.10;;;;;;5059405;28;20456;-74
2022/07/24 08:06:14;;;;;;;8.40;7.80;;;29.60;62.10;;;;;;5053234;28;20449;-76
2022/07/24 08:08:43;;;;;;;8.80;8.00;;;29.60;62.10;;;;;;5060737;28;20518;-75
2022/07/24 08:11:14;;;;;;;8.17;7.63;;;29.60;62.10;;;;;;5056833;28;20450;-73
2022/07/24 08:13:42;;;;;;;8.27;7.60;;;29.60;62.10;;;;;;5058370;28;20550;-73
2022/07/24 08:16:18;;;;;;;7.93;7.33;;;29.60;62.10;;;;;;5057287;28;20453;-72
2022/07/24 08:18:46;;;;;;;8.03;7.40;;;29.60;62.10;;;;;;5054673;28;20538;-75
2022/07/24 08:21:20;;;;;;;9.03;8.30;;;29.60;62.10;;;;;;5055433;28;20462;-72
2022/07/24 08:23:48;;;;;;;8.70;8.00;;;29.60;62.10;;;;;;5055276;28;20544;-73
2022/07/24 08:26:17;;;;;;;9.03;8.23;;;29.70;62.10;;;;;;5058290;28;20952;-73
2022/07/24 08:28:45;;;;;;;8.70;7.90;;;29.70;62.10;;;;;;5055767;28;20501;-72
2022/07/24 08:31:20;;;;;;;8.53;7.83;;;29.70;62.00;;;;;;5052254;28;20509;-73
2022/07/24 08:33:49;;;;;;;8.70;7.97;;;29.70;62.00;;;;;;5052469;28;20461;-73
2022/07/24 08:36:17;;;;;;;9.17;8.47;;;29.70;62.00;;;;;;5052064;28;20504;-72
2022/07/24 08:38:45;;;;;;;8.77;8.07;;;29.70;62.00;;;;;;5056728;28;20897;-72
2022/07/24 08:41:18;;;;;;;10.33;8.90;;;29.70;62.00;;;;;;5055159;28;20457;-72
2022/07/24 08:43:54;;;;;;;8.80;8.00;;;29.70;62.10;;;;;;5054467;28;20829;-72
2022/07/24 08:46:25;;;;;;;9.27;8.00;;;29.70;62.00;;;;;;5050704;28;20520;-73
2022/07/24 08:48:53;;;;;;;9.53;8.63;;;29.70;62.00;;;;;;5050274;28;20535;-72
2022/07/24 08:51:22;;;;;;;8.00;7.40;;;29.70;62.00;;;;;;5059287;28;20493;-72
2022/07/24 08:53:52;;;;;;;8.50;7.87;;;29.70;62.00;;;;;;5060716;28;21020;-71
2022/07/24 08:56:20;;;;;;;9.53;8.70;;;29.70;62.00;;;;;;5051462;28;20877;-72
2022/07/24 08:58:48;;;;;;;8.67;7.97;;;29.80;61.90;;;;;;5053268;28;21039;-72
2022/07/24 09:01:16;;;;;;;8.10;7.60;;;29.80;61.90;;;;;;5053340;28;20576;-72
2022/07/24 09:03:48;;;;;;;9.73;8.50;;;29.80;61.90;;;;;;5052845;28;20480;-72
2022/07/24 09:06:16;;;;;;;8.93;8.23;;;29.80;61.80;;;;;;5050442;28;20547;-72
2022/07/24 09:08:58;;;;;;;9.03;8.23;;;29.80;61.90;;;;;;5051540;28;20443;-72
2022/07/24 09:11:28;;;;;;;8.40;7.80;;;29.80;61.80;;;;;;5056985;28;20783;-72
2022/07/24 09:16:47;;;;;;;8.60;8.00;;;29.80;61.70;;;;;;5053443;28;20854;-72
2022/07/24 09:19:17;;;;;;;8.93;8.33;;;29.80;61.70;;;;;;5059247;28;20447;-72
2022/07/24 09:21:49;;;;;;;9.53;8.83;;;29.80;61.70;;;;;;5054423;28;20467;-72
2022/07/24 09:24:20;;;;;;;8.83;8.13;;;29.80;61.70;;;;;;5053028;28;20639;-72
2022/07/24 09:26:50;;;;;;;9.83;9.10;;;29.80;61.70;;;;;;5049050;28;20472;-72
2022/07/24 09:29:21;;;;;;;8.77;8.00;;;29.80;61.70;;;;;;5051420;28;20801;-72
2022/07/24 09:31:57;;;;;;;8.60;8.00;;;29.80;61.70;;;;;;5053142;28;21114;-72
2022/07/24 09:34:28;;;;;;;9.37;8.57;;;29.80;61.70;;;;;;5048834;28;20482;-72
2022/07/24 09:36:59;;;;;;;9.33;8.63;;;29.80;61.70;;;;;;5050274;28;20869;-72
2022/07/24 09:39:29;;;;;;;10.40;8.60;;;29.80;61.70;;;;;;5051881;28;20518;-72
2022/07/24 09:41:58;;;;;;;9.27;8.53;;;29.80;61.60;;;;;;5055097;28;20524;-72
2022/07/24 09:44:28;;;;;;;8.97;8.27;;;29.90;61.60;;;;;;5054230;28;20461;-72
2022/07/24 09:46:58;;;;;;;10.47;9.43;;;29.90;61.60;;;;;;5052715;28;20449;-72
2022/07/24 09:49:29;;;;;;;9.50;8.70;;;29.90;61.60;;;;;;5052816;28;20507;-72
2022/07/24 09:52:12;;;;;;;9.63;8.73;;;29.90;61.50;;;;;;5050384;28;20477;-72
2022/07/24 09:54:43;;;;;;;8.73;8.03;;;29.90;61.60;;;;;;5053114;28;20457;-72
2022/07/24 09:57:23;;;;;;;9.37;8.70;;;29.90;61.50;;;;;;5056762;28;20915;-72
2022/07/24 09:59:53;;;;;;;9.23;8.53;;;29.90;61.50;;;;;;5052573;28;20468;-72
2022/07/24 10:02:26;;;;;;;9.60;9.00;;;29.90;61.50;;;;;;5058221;28;20487;-72
2022/07/24 10:04:57;;;;;;;9.03;8.43;;;29.90;61.50;;;;;;5056093;28;20461;-72
2022/07/24 10:07:26;;;;;;;8.33;7.70;;;29.90;61.40;;;;;;5066102;28;20465;-72
2022/07/24 10:09:57;;;;;;;8.70;8.00;;;29.90;61.40;;;;;;5059817;28;20440;-72
2022/07/24 10:12:28;;;;;;;9.80;8.90;;;29.90;61.40;;;;;;5050839;28;20518;-72
2022/07/24 10:14:59;;;;;;;10.20;9.23;;;29.90;61.40;;;;;;5052747;28;20859;-73
2022/07/24 10:18:03;;;;;;;10.23;9.33;;;29.90;61.30;;;;;;5053008;28;20803;-73
2022/07/24 10:20:39;;;;;;;9.60;8.80;;;29.90;61.30;;;;;;5062152;28;20517;-72
2022/07/24 10:23:24;;;;;;;12.17;10.83;;;30.00;61.30;;;;;;5056095;28;20474;-73
2022/07/24 10:26:08;;;;;;;16.63;10.93;;;30.00;61.30;;;;;;5053084;28;20453;-72
2022/07/24 10:28:41;;;;;;;12.57;11.10;;;30.00;61.30;;;;;;5058745;28;20454;-73
2022/07/24 10:31:14;;;;;;;13.07;10.77;;;30.00;61.30;;;;;;5058866;28;20464;-73
2022/07/24 10:33:47;;;;;;;16.97;11.47;;;30.00;61.30;;;;;;5054919;28;20496;-71
2022/07/24 10:36:23;;;;;;;12.40;11.20;;;30.00;61.20;;;;;;5051312;28;20501;-72
2022/07/24 10:38:58;;;;;;;13.43;12.20;;;30.00;61.20;;;;;;5050050;28;20456;-71
2022/07/24 10:41:27;;;;;;;16.47;11.70;;;30.00;61.20;;;;;;5056902;28;20468;-71
2022/07/24 10:44:16;;;;;;;17.70;11.07;;;30.00;61.20;;;;;;5059952;28;20472;-72
2022/07/24 10:46:59;;;;;;;15.33;11.27;;;30.00;61.10;;;;;;5054143;28;20565;-72
2022/07/24 10:49:40;;;;;;;13.77;11.87;;;30.00;61.10;;;;;;5055191;28;20533;-72
2022/07/24 10:52:21;;;;;;;11.40;10.20;;;30.10;61.10;;;;;;5054068;28;20481;-72
2022/07/24 10:54:49;;;;;;;13.57;11.80;;;30.10;61.10;;;;;;5056017;28;20491;-72
2022/07/24 10:57:18;;;;;;;15.93;11.37;;;30.10;61.10;;;;;;5056616;28;20478;-72
2022/07/24 10:59:46;;;;;;;19.77;11.87;;;30.10;61.00;;;;;;5050013;28;20621;-74
2022/07/24 11:02:29;;;;;;;12.00;10.80;;;30.10;61.00;;;;;;5058292;28;20968;-72
2022/07/24 11:05:28;;;;;;;12.37;11.37;;;30.10;61.00;;;;;;5069508;28;20843;-72
2022/07/24 11:08:34;;;;;;;11.40;10.07;;;30.10;60.90;;;;;;5052370;28;20513;-73
2022/07/24 11:11:18;;;;;;;13.53;10.27;;;30.10;60.90;;;;;;5063664;28;20448;-72
2022/07/24 11:13:48;;;;;;;11.00;9.90;;;30.10;60.90;;;;;;5064347;28;20450;-72
2022/07/24 11:16:25;;;;;;;11.63;10.50;;;30.10;60.90;;;;;;5058044;28;20468;-72
2022/07/24 11:19:28;;;;;;;11.47;10.30;;;30.20;60.80;;;;;;5059294;28;20449;-72
2022/07/24 11:22:11;;;;;;;12.30;11.00;;;30.20;60.80;;;;;;5074513;28;20448;-72
2022/07/24 11:25:24;;;;;;;11.77;10.57;;;30.20;60.80;;;;;;5056654;28;20469;-72
2022/07/24 11:27:58;;;;;;;12.40;11.03;;;30.20;60.70;;;;;;5058249;28;20517;-72
2022/07/24 11:30:28;;;;;;;13.10;11.57;;;30.20;60.60;;;;;;5056893;28;20496;-72
2022/07/24 11:32:57;;;;;;;9.73;9.00;;;30.20;60.40;;;;;;5053815;28;20553;-73
2022/07/24 11:35:34;;;;;;;11.40;10.30;;;30.30;60.30;;;;;;5053498;28;20465;-72
2022/07/24 11:38:05;;;;;;;11.00;9.97;;;30.30;60.20;;;;;;5066868;28;20465;-72
2022/07/24 11:40:35;;;;;;;12.03;11.03;;;30.30;60.20;;;;;;5052081;28;20470;-72
2022/07/24 11:43:05;;;;;;;11.80;10.77;;;30.30;60.10;;;;;;5055751;28;20475;-72
2022/07/24 11:45:38;;;;;;;10.93;9.93;;;30.30;59.80;;;;;;5055710;28;20456;-72
2022/07/24 11:48:07;;;;;;;10.90;10.00;;;30.30;59.80;;;;;;5052667;28;20844;-72
2022/07/24 11:50:35;;;;;;;9.70;8.80;;;30.30;59.60;;;;;;5052817;28;20522;-72
2022/07/24 11:53:07;;;;;;;9.87;9.17;;;30.20;59.70;;;;;;5060466;28;20512;-73
2022/07/24 11:55:37;;;;;;;10.53;9.63;;;30.20;59.60;;;;;;5049654;28;20490;-72
2022/07/24 11:58:06;;;;;;;11.10;10.10;;;30.20;59.70;;;;;;5054694;28;20531;-74
2022/07/24 12:00:54;;;;;;;9.90;9.10;;;30.30;59.70;;;;;;5062066;28;20460;-72
2022/07/24 12:03:25;;;;;;;10.00;9.10;;;30.30;59.60;;;;;;5057422;28;20995;-72
2022/07/24 12:05:55;;;;;;;9.73;8.97;;;30.30;59.40;;;;;;5057294;28;20516;-72
2022/07/24 12:08:26;;;;;;;10.83;9.93;;;30.30;59.40;;;;;;5055164;28;20461;-72
2022/07/24 12:10:59;;;;;;;9.63;8.83;;;30.30;59.30;;;;;;5055806;28;20487;-72
2022/07/24 12:13:30;;;;;;;9.30;8.50;;;30.30;59.40;;;;;;5052239;28;20524;-72
2022/07/24 12:15:58;;;;;;;9.43;8.77;;;30.30;59.30;;;;;;5053453;28;20492;-72
2022/07/24 12:18:27;;;;;;;10.10;9.20;;;30.40;59.20;;;;;;5056111;28;20453;-72
2022/07/24 12:21:09;;;;;;;9.57;8.60;;;30.40;59.10;;;;;;5056833;28;20476;-69
2022/07/24 12:23:38;;;;;;;9.70;8.90;;;30.30;59.20;;;;;;5052990;28;20454;-72
2022/07/24 12:26:14;;;;;;;8.70;8.00;;;30.30;59.20;;;;;;5056445;28;20452;-73
2022/07/24 12:28:42;;;;;;;8.53;7.93;;;30.30;59.40;;;;;;5059229;28;20926;-72
2022/07/24 12:31:14;;;;;;;8.97;8.27;;;30.30;59.30;;;;;;5062472;28;20476;-73
2022/07/24 12:33:55;;;;;;;8.17;7.67;;;30.40;59.30;;;;;;5062190;28;20456;-73
2022/07/24 12:36:23;;;;;;;10.37;9.10;;;30.30;59.20;;;;;;5057339;28;20861;-72
2022/07/24 12:38:54;;;;;;;9.67;8.87;;;30.30;59.30;;;;;;5055073;28;20522;-72
2022/07/24 12:41:25;;;;;;;9.40;8.47;;;30.40;59.20;;;;;;5055350;28;20492;-72
2022/07/24 12:43:54;;;;;;;9.50;8.70;;;30.40;59.30;;;;;;5056544;28;20479;-72
2022/07/24 12:46:25;;;;;;;9.30;8.50;;;30.40;59.20;;;;;;5058295;28;20557;-72
2022/07/24 12:49:00;;;;;;;8.67;7.97;;;30.40;59.00;;;;;;5063171;28;20460;-72
2022/07/24 12:51:45;;;;;;;9.00;8.40;;;30.40;58.70;;;;;;5068789;28;21008;-72
2022/07/24 12:54:17;;;;;;;9.37;8.60;;;30.40;58.70;;;;;;5059123;28;20461;-73
2022/07/24 12:56:49;;;;;;;9.93;9.23;;;30.40;58.70;;;;;;5052090;28;20426;-72
2022/07/24 12:59:29;;;;;;;9.33;8.63;;;30.40;58.70;;;;;;5057636;28;20486;-73
2022/07/24 13:01:59;;;;;;;8.27;7.67;;;30.40;58.40;;;;;;5066541;28;20921;-72
2022/07/24 13:04:28;;;;;;;9.40;8.60;;;30.50;58.40;;;;;;5060191;28;20462;-72
2022/07/24 13:06:58;;;;;;;8.03;7.43;;;30.40;58.40;;;;;;5055386;28;20909;-72